createdAt,value
2018-06-29T00:00:12.977Z,19.60
2018-06-29T00:02:42.106Z,19.50
2018-06-29T00:05:11.282Z,19.70
2018-06-29T00:07:40.411Z,19.80
2018-06-29T00:10:09.621Z,19.70
2018-06-29T00:12:38.735Z,19.60
2018-06-29T00:15:07.875Z,19.40
2018-06-29T00:17:37.038Z,19.50
2018-06-29T00:20:06.262Z,19.70
2018-06-29T00:22:35.418Z,19.40
2018-06-29T00:25:04.617Z,19.50
2018-06-29T00:27:33.741Z,19.30
2018-06-29T00:30:02.926Z,19.20
2018-06-29T00:32:32.030Z,19.40
2018-06-29T00:35:01.159Z,19.30
2018-06-29T00:37:30.348Z,19.30
2018-06-29T00:39:59.567Z,19.30
2018-06-29T00:42:28.691Z,19.50
2018-06-29T00:44:57.973Z,19.30
2018-06-29T00:47:27.179Z,19.00
2018-06-29T00:49:56.267Z,18.90
2018-06-29T00:52:25.417Z,19.10
2018-06-29T00:54:54.586Z,19.10
2018-06-29T00:57:23.781Z,19.20
2018-06-29T00:59:52.975Z,19.10
2018-06-29T01:02:22.106Z,18.80
2018-06-29T01:04:51.366Z,19.00
2018-06-29T01:07:20.506Z,18.70
2018-06-29T01:09:49.725Z,18.60
2018-06-29T01:12:18.862Z,18.80
2018-06-29T01:14:47.997Z,18.80
2018-06-29T01:17:17.145Z,18.70
2018-06-29T01:19:46.341Z,18.80
2018-06-29T01:22:15.508Z,18.70
2018-06-29T01:24:44.675Z,18.80
2018-06-29T01:27:13.857Z,18.90
2018-06-29T01:29:43.039Z,18.70
2018-06-29T01:32:12.236Z,18.70
2018-06-29T01:34:41.399Z,18.90
2018-06-29T01:37:10.528Z,18.80
2018-06-29T01:39:39.706Z,18.90
2018-06-29T01:42:08.830Z,19.00
2018-06-29T01:44:38.065Z,18.80
2018-06-29T01:47:07.568Z,18.70
2018-06-29T01:49:36.706Z,18.60
2018-06-29T01:52:06.126Z,18.50
2018-06-29T01:54:35.285Z,18.60
2018-06-29T01:57:04.434Z,18.50
2018-06-29T01:59:33.581Z,18.40
2018-06-29T02:02:02.724Z,18.50
2018-06-29T02:04:31.927Z,18.40
2018-06-29T02:07:01.250Z,18.30
2018-06-29T02:09:30.602Z,18.60
2018-06-29T02:11:59.788Z,18.70
2018-06-29T02:14:28.963Z,18.50
2018-06-29T02:16:58.081Z,18.20
2018-06-29T02:19:27.299Z,18.40
2018-06-29T02:21:56.397Z,18.30
2018-06-29T02:24:25.594Z,18.20
2018-06-29T02:26:54.819Z,18.10
2018-06-29T02:29:23.978Z,18.20
2018-06-29T02:31:53.188Z,18.00
2018-06-29T02:34:22.349Z,17.90
2018-06-29T02:36:51.579Z,18.10
2018-06-29T02:39:20.771Z,17.80
2018-06-29T02:41:50.034Z,18.00
2018-06-29T02:44:19.199Z,17.90
2018-06-29T02:46:48.293Z,18.10
2018-06-29T02:49:17.432Z,18.00
2018-06-29T02:51:46.612Z,18.20
2018-06-29T02:54:15.759Z,18.00
2018-06-29T02:56:44.853Z,18.10
2018-06-29T02:59:13.985Z,18.00
2018-06-29T03:01:43.173Z,17.90
2018-06-29T03:04:12.340Z,17.90
2018-06-29T03:06:41.652Z,18.00
2018-06-29T03:09:11.062Z,18.00
2018-06-29T03:11:40.292Z,17.90
2018-06-29T03:14:09.481Z,17.90
2018-06-29T03:16:38.685Z,17.90
2018-06-29T03:19:07.882Z,18.00
2018-06-29T03:21:37.037Z,18.10
2018-06-29T03:24:06.155Z,18.20
2018-06-29T03:26:35.585Z,18.20
2018-06-29T03:29:04.802Z,18.10
2018-06-29T03:31:33.950Z,18.40
2018-06-29T03:34:03.068Z,18.30
2018-06-29T03:36:32.249Z,18.30
2018-06-29T03:39:01.388Z,18.40
2018-06-29T03:41:30.533Z,18.40
2018-06-29T03:43:59.748Z,18.30
2018-06-29T03:46:28.943Z,18.40
2018-06-29T03:48:58.100Z,18.30
2018-06-29T03:51:27.216Z,18.50
2018-06-29T03:53:56.335Z,18.40
2018-06-29T03:56:25.527Z,18.70
2018-06-29T03:58:55.001Z,18.70
2018-06-29T04:01:24.150Z,18.80
2018-06-29T04:03:53.298Z,18.80
2018-06-29T04:06:22.472Z,18.90
2018-06-29T04:08:51.583Z,18.90
2018-06-29T04:11:20.710Z,19.10
2018-06-29T04:13:49.821Z,19.20
2018-06-29T04:16:18.988Z,19.10
2018-06-29T04:18:48.157Z,19.10
2018-06-29T04:21:17.258Z,19.30
2018-06-29T04:23:46.360Z,19.50
2018-06-29T04:26:15.459Z,19.60
2018-06-29T04:28:44.597Z,19.40
2018-06-29T04:31:13.714Z,19.20
2018-06-29T04:33:42.863Z,19.50
2018-06-29T04:36:12.022Z,19.80
2018-06-29T04:38:41.189Z,19.90
2018-06-29T04:41:10.333Z,19.70
2018-06-29T04:43:39.531Z,19.70
2018-06-29T04:46:08.696Z,20.00
2018-06-29T04:48:37.881Z,20.20
2018-06-29T04:51:07.082Z,20.20
2018-06-29T04:53:36.278Z,20.40
2018-06-29T04:56:05.406Z,20.50
2018-06-29T04:58:34.497Z,20.40
2018-06-29T05:01:03.817Z,20.60
2018-06-29T05:03:32.928Z,20.70
2018-06-29T05:06:02.094Z,20.60
2018-06-29T05:08:31.255Z,20.70
2018-06-29T05:11:00.424Z,20.80
2018-06-29T05:13:29.512Z,20.80
2018-06-29T05:15:58.664Z,20.90
2018-06-29T05:18:27.845Z,21.00
2018-06-29T05:20:56.972Z,21.00
2018-06-29T05:23:26.081Z,21.10
2018-06-29T05:25:55.227Z,21.40
2018-06-29T05:28:24.435Z,21.40
2018-06-29T05:30:53.545Z,21.50
2018-06-29T05:33:22.730Z,21.80
2018-06-29T05:35:51.918Z,21.90
2018-06-29T05:38:21.194Z,22.10
2018-06-29T05:40:51.295Z,22.40
2018-06-29T05:43:20.470Z,22.10
2018-06-29T05:45:49.609Z,21.90
2018-06-29T05:48:18.858Z,22.00
2018-06-29T05:50:47.938Z,22.30
2018-06-29T05:53:17.093Z,22.50
2018-06-29T05:55:46.144Z,22.70
2018-06-29T05:58:15.325Z,22.60
2018-06-29T06:00:44.473Z,22.60
2018-06-29T06:03:13.641Z,22.90
2018-06-29T06:05:42.711Z,23.00
2018-06-29T06:08:11.853Z,23.00
2018-06-29T06:10:41.022Z,23.00
2018-06-29T06:13:10.153Z,23.10
2018-06-29T06:15:39.331Z,23.30
2018-06-29T06:18:08.556Z,23.40
2018-06-29T06:20:37.688Z,23.30
2018-06-29T06:23:20.715Z,23.70
2018-06-29T06:25:49.874Z,23.70
2018-06-29T06:28:19.302Z,23.70
2018-06-29T06:30:48.468Z,23.80
2018-06-29T06:33:17.667Z,23.90
2018-06-29T06:35:46.817Z,24.20
2018-06-29T06:38:15.937Z,24.20
2018-06-29T06:40:45.130Z,24.20
2018-06-29T06:43:14.223Z,24.20
2018-06-29T06:45:43.358Z,24.40
2018-06-29T06:48:12.538Z,24.40
2018-06-29T06:50:41.666Z,24.30
2018-06-29T06:53:10.836Z,24.50
2018-06-29T06:55:40.047Z,24.70
2018-06-29T06:58:09.213Z,24.90
2018-06-29T07:00:38.373Z,25.00
2018-06-29T07:03:07.559Z,24.90
2018-06-29T07:05:36.666Z,25.00
2018-06-29T07:08:06.073Z,25.00
2018-06-29T07:10:35.196Z,25.30
2018-06-29T07:13:04.393Z,25.40
2018-06-29T07:15:33.588Z,25.40
2018-06-29T07:18:02.744Z,25.40
2018-06-29T07:20:31.921Z,25.60
2018-06-29T07:23:01.091Z,25.70
2018-06-29T07:25:30.216Z,25.50
2018-06-29T07:27:59.312Z,25.70
2018-06-29T07:30:28.451Z,25.80
2018-06-29T07:32:57.611Z,26.10
2018-06-29T07:35:26.754Z,25.80
2018-06-29T07:37:55.962Z,26.00
2018-06-29T07:40:25.117Z,25.90
2018-06-29T07:42:54.274Z,26.20
2018-06-29T07:45:23.457Z,25.90
2018-06-29T07:47:52.665Z,25.90
2018-06-29T07:50:21.862Z,26.10
2018-06-29T07:52:51.085Z,26.10
2018-06-29T07:55:20.242Z,26.50
2018-06-29T07:57:49.362Z,26.40
2018-06-29T08:00:18.528Z,26.40
2018-06-29T08:02:47.754Z,26.60
2018-06-29T08:05:16.922Z,26.60
2018-06-29T08:07:46.045Z,26.40
2018-06-29T08:10:15.247Z,26.50
2018-06-29T08:12:44.435Z,26.80
2018-06-29T08:15:13.775Z,26.80
2018-06-29T08:17:42.925Z,27.00
2018-06-29T08:20:12.174Z,26.90
2018-06-29T08:22:41.371Z,27.00
2018-06-29T08:25:14.587Z,27.20
2018-06-29T08:27:44.036Z,27.30
2018-06-29T08:30:14.326Z,27.20
2018-06-29T08:32:43.477Z,27.30
2018-06-29T08:35:12.613Z,27.20
2018-06-29T08:37:41.802Z,27.00
2018-06-29T08:40:11.153Z,26.70
2018-06-29T08:42:40.317Z,26.80
2018-06-29T08:45:10.102Z,27.00
2018-06-29T08:47:39.254Z,27.10
2018-06-29T08:50:08.366Z,27.10
2018-06-29T08:52:37.518Z,27.10
2018-06-29T08:55:06.823Z,27.00
2018-06-29T08:57:36.100Z,26.90
2018-06-29T09:00:07.220Z,27.10
2018-06-29T09:02:36.476Z,27.60
2018-06-29T09:05:06.226Z,27.70
2018-06-29T09:07:35.656Z,27.70
2018-06-29T09:10:05.414Z,28.10
2018-06-29T09:12:34.602Z,28.30
2018-06-29T09:15:03.778Z,28.50
2018-06-29T09:17:32.921Z,28.60
2018-06-29T09:20:02.119Z,28.40
2018-06-29T09:22:31.318Z,28.70
2018-06-29T09:25:00.448Z,29.00
2018-06-29T09:27:29.642Z,29.20
2018-06-29T09:29:58.882Z,29.30
2018-06-29T09:32:28.054Z,29.10
2018-06-29T09:34:57.165Z,29.10
2018-06-29T09:37:26.394Z,29.50
2018-06-29T09:39:55.557Z,29.50
2018-06-29T09:42:24.716Z,29.50
2018-06-29T09:44:53.850Z,29.60
2018-06-29T09:47:23.003Z,29.90
2018-06-29T09:49:52.141Z,30.20
2018-06-29T09:52:21.269Z,30.50
2018-06-29T09:54:50.435Z,31.00
2018-06-29T09:57:19.654Z,31.50
2018-06-29T09:59:48.883Z,31.70
2018-06-29T10:02:18.017Z,31.30
2018-06-29T10:04:47.134Z,31.20
2018-06-29T10:07:16.275Z,31.00
2018-06-29T10:09:45.395Z,30.90
2018-06-29T10:12:14.501Z,30.70
2018-06-29T10:14:43.639Z,30.90
2018-06-29T10:17:12.772Z,30.50
2018-06-29T10:19:41.997Z,30.70
2018-06-29T10:22:11.150Z,30.70
2018-06-29T10:24:40.301Z,31.30
2018-06-29T10:27:09.416Z,31.90
2018-06-29T10:29:38.581Z,32.00
2018-06-29T10:32:07.716Z,32.50
2018-06-29T10:34:36.889Z,32.50
2018-06-29T10:37:06.009Z,33.00
2018-06-29T10:39:35.490Z,33.00
2018-06-29T10:42:04.654Z,33.20
2018-06-29T10:44:33.913Z,32.90
2018-06-29T10:47:03.146Z,32.60
2018-06-29T10:49:32.355Z,33.10
2018-06-29T10:52:01.496Z,33.60
2018-06-29T10:54:30.673Z,33.60
2018-06-29T10:56:59.821Z,34.00
2018-06-29T10:59:28.951Z,34.10
2018-06-29T11:01:58.126Z,34.40
2018-06-29T11:04:27.325Z,34.50
2018-06-29T11:06:56.420Z,34.30
2018-06-29T11:09:25.570Z,34.10
2018-06-29T11:11:54.759Z,34.70
2018-06-29T11:14:23.906Z,35.50
2018-06-29T11:16:53.102Z,35.80
2018-06-29T11:19:22.309Z,36.00
2018-06-29T11:21:51.641Z,36.60
2018-06-29T11:24:20.835Z,37.20
2018-06-29T11:26:50.024Z,36.90
2018-06-29T11:29:19.142Z,38.60
2018-06-29T11:31:48.268Z,39.00
2018-06-29T11:34:17.449Z,39.00
2018-06-29T11:36:46.649Z,38.90
2018-06-29T11:39:15.711Z,38.60
2018-06-29T11:41:44.895Z,39.50
2018-06-29T11:44:14.093Z,40.10
2018-06-29T11:46:43.245Z,40.00
2018-06-29T11:49:12.455Z,39.20
2018-06-29T11:51:41.556Z,39.30
2018-06-29T11:54:10.753Z,38.50
2018-06-29T11:56:39.872Z,38.80
2018-06-29T11:59:09.015Z,38.70
2018-06-29T12:01:38.142Z,39.60
2018-06-29T12:04:07.273Z,41.60
2018-06-29T12:06:36.444Z,44.00
2018-06-29T12:09:08.888Z,43.90
2018-06-29T12:11:38.138Z,45.50
2018-06-29T12:14:07.342Z,45.30
2018-06-29T12:16:36.463Z,44.00
2018-06-29T12:19:05.584Z,44.00
2018-06-29T12:21:34.734Z,46.30
2018-06-29T12:24:03.874Z,48.60
2018-06-29T12:26:33.054Z,50.90
2018-06-29T12:29:02.218Z,48.90
2018-06-29T12:31:31.314Z,45.20
2018-06-29T12:34:00.504Z,47.00
2018-06-29T12:36:29.643Z,49.70
2018-06-29T12:38:58.838Z,52.10
2018-06-29T12:41:27.974Z,51.50
2018-06-29T12:43:57.101Z,51.90
2018-06-29T12:46:26.225Z,54.30
2018-06-29T12:48:55.180Z,54.60
2018-06-29T12:51:24.399Z,53.90
2018-06-29T12:53:53.522Z,56.30
2018-06-29T12:56:22.658Z,58.30
2018-06-29T12:58:51.950Z,57.30
2018-06-29T13:01:21.107Z,59.60
2018-06-29T13:03:50.239Z,56.50
2018-06-29T13:06:19.393Z,55.80
2018-06-29T13:08:48.789Z,58.00
2018-06-29T13:11:17.879Z,57.10
2018-06-29T13:13:47.082Z,59.00
2018-06-29T13:16:16.217Z,60.20
2018-06-29T13:18:45.405Z,59.60
2018-06-29T13:21:14.535Z,57.80
2018-06-29T13:23:43.674Z,58.20
2018-06-29T13:26:12.800Z,57.80
2018-06-29T13:28:41.968Z,57.40
2018-06-29T13:31:11.120Z,58.90
2018-06-29T13:33:40.289Z,56.20
2018-06-29T13:36:09.390Z,52.10
2018-06-29T13:38:38.543Z,55.10
2018-06-29T13:41:07.673Z,56.60
2018-06-29T13:43:36.835Z,56.90
2018-06-29T13:46:06.030Z,58.60
2018-06-29T13:48:35.224Z,58.10
2018-06-29T13:51:04.405Z,56.40
2018-06-29T13:53:33.534Z,58.30
2018-06-29T13:56:02.673Z,58.10
2018-06-29T13:58:31.844Z,58.20
2018-06-29T14:01:01.072Z,57.80
2018-06-29T14:03:30.200Z,55.80
2018-06-29T14:05:59.366Z,53.10
2018-06-29T14:08:28.507Z,49.90
2018-06-29T14:10:57.780Z,47.80
2018-06-29T14:13:26.825Z,48.50
2018-06-29T14:15:55.986Z,49.10
2018-06-29T14:18:25.117Z,50.70
2018-06-29T14:20:54.236Z,52.80
2018-06-29T14:23:23.381Z,52.40
2018-06-29T14:25:52.588Z,51.20
2018-06-29T14:28:21.770Z,50.90
2018-06-29T14:30:50.871Z,49.10
2018-06-29T14:33:19.992Z,48.90
2018-06-29T14:35:49.162Z,47.50
2018-06-29T14:38:18.340Z,45.20
2018-06-29T14:40:47.613Z,43.50
2018-06-29T14:43:16.729Z,42.10
2018-06-29T14:45:45.882Z,41.50
2018-06-29T14:48:15.001Z,41.10
2018-06-29T14:50:44.093Z,41.40
2018-06-29T14:53:13.180Z,41.30
2018-06-29T14:55:42.363Z,43.00
2018-06-29T14:58:11.457Z,44.60
2018-06-29T15:00:40.593Z,47.50
2018-06-29T15:03:09.750Z,49.20
2018-06-29T15:05:38.907Z,50.50
2018-06-29T15:08:08.054Z,51.60
2018-06-29T15:10:37.322Z,52.50
2018-06-29T15:13:07.125Z,50.80
2018-06-29T15:15:36.267Z,50.30
2018-06-29T15:18:06.277Z,49.30
2018-06-29T15:20:35.363Z,50.80
2018-06-29T15:23:04.505Z,50.10
2018-06-29T15:25:33.605Z,50.40
2018-06-29T15:28:02.691Z,52.30
2018-06-29T15:30:31.881Z,52.60
2018-06-29T15:33:01.093Z,50.40
2018-06-29T15:35:30.214Z,48.70
2018-06-29T15:37:59.410Z,47.00
2018-06-29T15:40:28.503Z,44.60
2018-06-29T15:42:57.689Z,43.70
2018-06-29T15:45:26.829Z,42.00
2018-06-29T15:47:55.928Z,39.50
2018-06-29T15:50:25.117Z,38.60
2018-06-29T15:52:54.298Z,36.30
2018-06-29T15:55:23.648Z,34.10
2018-06-29T15:57:52.797Z,32.80
2018-06-29T16:00:21.890Z,32.10
2018-06-29T16:02:51.060Z,31.70
2018-06-29T16:05:20.233Z,31.00
2018-06-29T16:07:49.421Z,31.50
2018-06-29T16:10:18.568Z,31.60
2018-06-29T16:12:47.702Z,33.70
2018-06-29T16:15:16.816Z,35.50
2018-06-29T16:17:45.976Z,35.90
2018-06-29T16:20:15.167Z,34.40
2018-06-29T16:22:44.272Z,32.90
2018-06-29T16:25:13.414Z,31.90
2018-06-29T16:27:42.547Z,31.80
2018-06-29T16:30:11.730Z,30.80
2018-06-29T16:32:40.939Z,29.90
2018-06-29T16:35:10.239Z,29.40
2018-06-29T16:37:39.636Z,28.90
2018-06-29T16:40:08.793Z,28.60
2018-06-29T16:42:37.916Z,29.00
2018-06-29T16:45:07.151Z,28.90
2018-06-29T16:47:36.458Z,28.80
2018-06-29T16:50:05.760Z,28.60
2018-06-29T16:52:34.903Z,29.00
2018-06-29T16:55:04.067Z,29.00
2018-06-29T16:57:33.206Z,28.70
2018-06-29T17:00:02.348Z,28.60
2018-06-29T17:02:31.483Z,29.20
2018-06-29T17:05:00.686Z,30.50
2018-06-29T17:07:29.853Z,32.50
2018-06-29T17:09:59.012Z,32.50
2018-06-29T17:12:28.130Z,33.10
2018-06-29T17:14:57.311Z,34.70
2018-06-29T17:17:26.454Z,35.20
2018-06-29T17:19:55.611Z,34.60
2018-06-29T17:22:24.814Z,35.60
2018-06-29T17:24:53.937Z,36.40
2018-06-29T17:27:23.122Z,36.30
2018-06-29T17:29:52.295Z,37.00
2018-06-29T17:32:21.408Z,37.50
2018-06-29T17:34:50.641Z,37.60
2018-06-29T17:37:19.777Z,37.70
2018-06-29T17:39:48.980Z,38.30
2018-06-29T17:42:18.081Z,37.70
2018-06-29T17:44:47.250Z,37.80
2018-06-29T17:47:16.405Z,37.20
2018-06-29T17:49:45.770Z,36.60
2018-06-29T17:52:14.969Z,35.70
2018-06-29T17:54:44.178Z,35.20
2018-06-29T17:57:13.633Z,35.20
2018-06-29T17:59:42.762Z,34.90
2018-06-29T18:02:11.919Z,34.20
2018-06-29T18:04:41.066Z,34.20
2018-06-29T18:07:10.180Z,33.00
2018-06-29T18:09:39.367Z,31.50
2018-06-29T18:12:08.497Z,30.20
2018-06-29T18:14:37.442Z,29.00
2018-06-29T18:17:06.597Z,28.30
2018-06-29T18:19:35.784Z,26.90
2018-06-29T18:22:04.899Z,26.20
2018-06-29T18:24:33.861Z,25.50
2018-06-29T18:27:03.087Z,24.60
2018-06-29T18:29:32.224Z,24.20
2018-06-29T18:32:01.308Z,23.80
2018-06-29T18:34:30.475Z,23.60
2018-06-29T18:36:59.589Z,23.30
2018-06-29T18:39:28.765Z,23.00
2018-06-29T18:41:57.933Z,23.00
2018-06-29T18:44:27.076Z,23.00
2018-06-29T18:46:56.218Z,22.80
2018-06-29T18:49:25.413Z,22.20
2018-06-29T18:51:54.617Z,22.10
2018-06-29T18:54:23.749Z,22.00
2018-06-29T18:56:52.962Z,22.00
2018-06-29T18:59:22.157Z,22.00
2018-06-29T19:01:51.285Z,21.90
2018-06-29T19:04:20.458Z,21.80
2018-06-29T19:06:49.618Z,21.60
2018-06-29T19:09:18.797Z,21.50
2018-06-29T19:11:47.992Z,21.40
2018-06-29T19:14:17.125Z,21.40
2018-06-29T19:16:46.313Z,21.10
2018-06-29T19:19:15.504Z,21.00
2018-06-29T19:21:44.623Z,21.30
2018-06-29T19:24:13.799Z,20.90
2018-06-29T19:26:42.946Z,21.00
2018-06-29T19:29:12.062Z,20.80
2018-06-29T19:31:41.268Z,20.80
2018-06-29T19:34:10.552Z,20.70
2018-06-29T19:36:39.714Z,20.60
2018-06-29T19:39:10.427Z,20.60
2018-06-29T19:41:40.849Z,20.30
2018-06-29T19:44:10.873Z,20.60
2018-06-29T19:46:40.332Z,20.50
2018-06-29T19:49:10.143Z,20.40
2018-06-29T19:51:39.298Z,20.30
2018-06-29T19:54:08.486Z,20.20
2018-06-29T19:56:37.576Z,20.00
2018-06-29T19:59:06.702Z,20.00
2018-06-29T20:01:35.828Z,19.80
2018-06-29T20:04:05.022Z,19.60
2018-06-29T20:06:34.138Z,19.70
2018-06-29T20:09:03.290Z,19.90
2018-06-29T20:11:32.508Z,19.50
2018-06-29T20:14:01.622Z,19.70
2018-06-29T20:16:30.811Z,19.50
2018-06-29T20:18:59.984Z,19.40
2018-06-29T20:21:29.129Z,19.50
2018-06-29T20:23:58.292Z,19.30
2018-06-29T20:26:27.442Z,19.50
2018-06-29T20:28:56.586Z,19.40
2018-06-29T20:31:25.798Z,19.20
2018-06-29T20:33:55.060Z,19.10
2018-06-29T20:36:24.232Z,19.00
2018-06-29T20:38:53.549Z,18.80
2018-06-29T20:41:22.618Z,18.80
2018-06-29T20:43:51.759Z,18.70
2018-06-29T20:46:20.935Z,18.70
2018-06-29T20:48:50.143Z,18.70
2018-06-29T20:51:19.333Z,18.50
2018-06-29T20:53:48.524Z,18.60
2018-06-29T20:56:17.649Z,18.50
2018-06-29T20:58:46.838Z,18.50
2018-06-29T21:01:16.141Z,18.40
2018-06-29T21:03:45.351Z,18.50
2018-06-29T21:06:14.515Z,18.50
2018-06-29T21:08:43.644Z,18.20
2018-06-29T21:11:12.959Z,18.00
2018-06-29T21:13:42.151Z,17.80
2018-06-29T21:16:11.266Z,18.00
2018-06-29T21:18:40.364Z,18.00
2018-06-29T21:21:09.473Z,18.10
2018-06-29T21:23:38.677Z,17.90
2018-06-29T21:26:07.891Z,18.00
2018-06-29T21:28:37.222Z,17.90
2018-06-29T21:31:06.561Z,17.70
2018-06-29T21:33:35.740Z,17.70
2018-06-29T21:36:04.869Z,17.60
2018-06-29T21:38:34.010Z,17.50
2018-06-29T21:41:03.154Z,17.20
2018-06-29T21:43:32.296Z,17.20
2018-06-29T21:46:01.501Z,17.40
2018-06-29T21:48:30.676Z,17.20
2018-06-29T21:50:59.841Z,17.00
2018-06-29T21:53:28.981Z,17.20
2018-06-29T21:55:58.089Z,17.10
2018-06-29T21:58:27.310Z,16.90
2018-06-29T22:00:56.505Z,17.00
2018-06-29T22:03:25.687Z,17.00
2018-06-29T22:05:54.858Z,17.10
2018-06-29T22:08:23.988Z,17.00
2018-06-29T22:10:53.140Z,16.90
2018-06-29T22:13:22.265Z,16.70
2018-06-29T22:15:51.407Z,16.60
2018-06-29T22:18:20.594Z,16.60
2018-06-29T22:20:49.736Z,16.40
2018-06-29T22:23:18.891Z,16.50
2018-06-29T22:25:48.040Z,16.30
2018-06-29T22:28:17.203Z,16.50
2018-06-29T22:30:46.361Z,16.50
2018-06-29T22:33:15.545Z,16.40
2018-06-29T22:35:44.786Z,16.40
2018-06-29T22:38:13.924Z,16.10
2018-06-29T22:40:43.033Z,16.20
2018-06-29T22:43:12.157Z,16.20
2018-06-29T22:45:41.319Z,16.10
2018-06-29T22:48:10.526Z,16.10
2018-06-29T22:50:39.641Z,15.70
2018-06-29T22:53:08.749Z,15.80
2018-06-29T22:55:38.010Z,15.80
2018-06-29T22:58:07.121Z,15.80
2018-06-29T23:00:36.228Z,15.70
2018-06-29T23:03:08.927Z,15.80
2018-06-29T23:05:38.113Z,15.80
2018-06-29T23:08:08.433Z,15.70
2018-06-29T23:10:37.621Z,15.70
2018-06-29T23:13:07.266Z,15.60
2018-06-29T23:15:36.437Z,15.70
2018-06-29T23:18:05.827Z,15.60
2018-06-29T23:20:34.932Z,15.60
2018-06-29T23:23:04.098Z,15.50
2018-06-29T23:25:33.251Z,15.70
2018-06-29T23:28:02.378Z,15.60
2018-06-29T23:30:31.485Z,15.40
2018-06-29T23:33:00.645Z,15.70
2018-06-29T23:35:29.761Z,15.70
2018-06-29T23:37:58.877Z,15.50
2018-06-29T23:40:28.043Z,15.40
2018-06-29T23:42:57.197Z,15.40
2018-06-29T23:45:26.352Z,15.20
2018-06-29T23:47:55.460Z,15.30
2018-06-29T23:50:24.582Z,15.40
2018-06-29T23:52:53.735Z,15.40
2018-06-29T23:55:22.909Z,15.30
2018-06-29T23:57:52.026Z,15.30
